createdAt,value
2019-01-02T00:00:13.829Z,78.1
2019-01-02T00:00:56.835Z,78.19
2019-01-02T00:01:37.380Z,78.67
2019-01-02T00:02:19.283Z,78.29
2019-01-02T00:02:59.651Z,78.19
2019-01-02T00:03:41.104Z,77.15
2019-01-02T00:04:23.799Z,77.91
2019-01-02T00:05:05.575Z,79.33
2019-01-02T00:05:46.165Z,78.77
2019-01-02T00:06:27.362Z,77.91
2019-01-02T00:07:11.821Z,78
2019-01-02T00:07:52.143Z,77.53
2019-01-02T00:08:34.263Z,77.62
2019-01-02T00:09:15.621Z,78.19
2019-01-02T00:09:56.173Z,78.1
2019-01-02T00:10:36.573Z,77.81
2019-01-02T00:11:19.183Z,77.91
2019-01-02T00:12:00.931Z,77.53
2019-01-02T00:12:41.364Z,77.72
2019-01-02T00:13:21.744Z,77.05
2019-01-02T00:14:06.175Z,77.15
2019-01-02T00:14:47.761Z,76.96
2019-01-02T00:15:29.168Z,76.2
2019-01-02T00:16:09.565Z,76.29
2019-01-02T00:16:50.116Z,77.53
2019-01-02T00:17:30.541Z,77.05
2019-01-02T00:18:12.649Z,77.34
2019-01-02T00:18:56.845Z,77.62
2019-01-02T00:19:37.194Z,78.48
2019-01-02T00:20:17.574Z,77.81
2019-01-02T00:21:00.260Z,77.62
2019-01-02T00:21:40.672Z,76.39
2019-01-02T00:22:23.888Z,76.86
2019-01-02T00:23:05.830Z,77.05
2019-01-02T00:23:48.162Z,76.76
2019-01-02T00:24:28.578Z,77.05
2019-01-02T00:25:09.038Z,76.57
2019-01-02T00:25:49.738Z,76.67
2019-01-02T00:26:30.065Z,77.72
2019-01-02T00:27:10.517Z,76.86
2019-01-02T00:27:50.898Z,76.82
2019-01-02T00:28:31.588Z,76.35
2019-01-02T00:29:11.733Z,76.54
2019-01-02T00:29:53.891Z,77.01
2019-01-02T00:30:34.291Z,76.16
2019-01-02T00:31:16.204Z,76.92
2019-01-02T00:31:56.585Z,77.01
2019-01-02T00:32:38.707Z,76.82
2019-01-02T00:33:19.072Z,77.77
2019-01-02T00:34:01.100Z,77.3
2019-01-02T00:34:42.316Z,77.39
2019-01-02T00:35:23.835Z,75.4
2019-01-02T00:36:04.163Z,75.87
2019-01-02T00:36:44.800Z,76.25
2019-01-02T00:37:27.103Z,76.25
2019-01-02T00:38:07.595Z,75.59
2019-01-02T00:38:49.308Z,76.35
2019-01-02T00:39:31.244Z,76.16
2019-01-02T00:40:11.725Z,76.06
2019-01-02T00:40:52.160Z,76.25
2019-01-02T00:41:32.520Z,76.16
2019-01-02T00:42:16.284Z,76.16
2019-01-02T00:42:56.790Z,75.4
2019-01-02T00:43:37.172Z,74.82
2019-01-02T00:44:19.167Z,74.54
2019-01-02T00:45:00.541Z,74.73
2019-01-02T00:45:41.019Z,74.92
2019-01-02T00:46:21.395Z,75.4
2019-01-02T00:47:03.662Z,76.44
2019-01-02T00:47:44.974Z,75.02
2019-01-02T00:48:29.379Z,75.21
2019-01-02T00:49:12.591Z,75.96
2019-01-02T00:49:53.057Z,75.68
2019-01-02T00:50:35.359Z,76.63
2019-01-02T00:51:15.767Z,74.73
2019-01-02T00:51:56.107Z,74.35
2019-01-02T00:52:36.491Z,74.92
2019-01-02T00:53:18.315Z,74.82
2019-01-02T00:53:58.648Z,75.3
2019-01-02T00:54:39.422Z,75.21
2019-01-02T00:55:19.766Z,75.11
2019-01-02T00:56:02.225Z,74.63
2019-01-02T00:56:43.395Z,74.54
2019-01-02T00:57:25.867Z,73.88
2019-01-02T00:58:06.342Z,74.35
2019-01-02T00:58:47.635Z,74.73
2019-01-02T00:59:28.757Z,73.44
2019-01-02T01:00:09.360Z,73.4
2019-01-02T01:00:49.952Z,74.63
2019-01-02T01:01:30.577Z,73.53
2019-01-02T01:02:10.956Z,74.01
2019-01-02T01:02:52.379Z,73.34
2019-01-02T01:03:33.637Z,73.44
2019-01-02T01:04:14.068Z,73.15
2019-01-02T01:04:54.442Z,73.34
2019-01-02T01:05:36.780Z,71.82
2019-01-02T01:06:18.075Z,71.53
2019-01-02T01:06:58.519Z,71.44
2019-01-02T01:07:39.867Z,71.5
2019-01-02T01:08:20.183Z,71.82
2019-01-02T01:09:00.927Z,72.49
2019-01-02T01:09:41.278Z,71.5
2019-01-02T01:10:24.438Z,71.41
2019-01-02T01:11:04.815Z,71.41
2019-01-02T01:11:46.602Z,71.78
2019-01-02T01:12:28.598Z,71.5
2019-01-02T01:13:11.032Z,72.26
2019-01-02T01:13:52.731Z,73.02
2019-01-02T01:14:33.101Z,72.45
2019-01-02T01:15:13.493Z,73.15
2019-01-02T01:15:55.794Z,73.25
2019-01-02T01:16:37.713Z,71.41
2019-01-02T01:17:18.344Z,71.82
2019-01-02T01:17:58.558Z,71.78
2019-01-02T01:18:40.670Z,70.97
2019-01-02T01:19:23.043Z,71.02
2019-01-02T01:20:03.559Z,71.59
2019-01-02T01:20:46.214Z,71.5
2019-01-02T01:21:26.275Z,71.02
2019-01-02T01:22:08.733Z,71.41
2019-01-02T01:22:49.225Z,72.16
2019-01-02T01:23:29.730Z,71.41
2019-01-02T01:24:10.055Z,71.02
2019-01-02T01:24:50.633Z,70.93
2019-01-02T01:25:30.999Z,71.5
2019-01-02T01:26:13.163Z,71.59
2019-01-02T01:26:54.725Z,72.07
2019-01-02T01:27:35.077Z,71.41
2019-01-02T01:28:15.672Z,70.93
2019-01-02T01:28:56.057Z,71.59
2019-01-02T01:29:36.696Z,71.31
2019-01-02T01:30:17.217Z,71.41
2019-01-02T01:30:59.718Z,70.93
2019-01-02T01:31:40.527Z,70.54
2019-01-02T01:32:22.908Z,71.12
2019-01-02T01:33:03.049Z,71.59
2019-01-02T01:33:47.086Z,70.93
2019-01-02T01:34:27.472Z,71.69
2019-01-02T01:35:09.371Z,70.83
2019-01-02T01:35:49.992Z,70.26
2019-01-02T01:36:30.420Z,70.45
2019-01-02T01:37:12.704Z,70.74
2019-01-02T01:37:54.890Z,71.02
2019-01-02T01:38:35.354Z,70.83
2019-01-02T01:39:18.143Z,71.02
2019-01-02T01:39:58.605Z,70.64
2019-01-02T01:40:40.824Z,70.74
2019-01-02T01:41:21.553Z,69.6
2019-01-02T01:42:01.932Z,70.64
2019-01-02T01:42:42.297Z,70.93
2019-01-02T01:43:22.673Z,70.74
2019-01-02T01:44:03.198Z,71.02
2019-01-02T01:44:47.227Z,69.92
2019-01-02T01:45:29.510Z,69.54
2019-01-02T01:46:11.444Z,69.92
2019-01-02T01:46:52.037Z,70.1
2019-01-02T01:47:32.494Z,69.73
2019-01-02T01:48:13.841Z,69.06
2019-01-02T01:49:00.185Z,68.87
2019-01-02T01:49:40.741Z,69.25
2019-01-02T01:50:23.074Z,70.2
2019-01-02T01:51:07.617Z,69.73
2019-01-02T01:51:49.866Z,69.73
2019-01-02T01:52:30.526Z,69.15
2019-01-02T01:53:12.824Z,69.25
2019-01-02T01:53:55.154Z,69.25
2019-01-02T01:54:35.659Z,69.54
2019-01-02T01:55:16.092Z,68.77
2019-01-02T01:55:58.541Z,69.44
2019-01-02T01:56:42.638Z,69.54
2019-01-02T01:57:23.873Z,69.82
2019-01-02T01:58:07.610Z,69.35
2019-01-02T01:58:49.875Z,69.06
2019-01-02T01:59:30.262Z,69.44
2019-01-02T02:00:10.821Z,69.35
2019-01-02T02:00:51.319Z,69.73
2019-01-02T02:01:31.627Z,68.77
2019-01-02T02:02:12.001Z,69.25
2019-01-02T02:02:54.212Z,68.65
2019-01-02T02:03:34.590Z,69.41
2019-01-02T02:04:17.774Z,69.41
2019-01-02T02:05:01.137Z,69.98
2019-01-02T02:05:43.162Z,69.41
2019-01-02T02:06:23.623Z,70.07
2019-01-02T02:07:05.235Z,70.07
2019-01-02T02:07:45.580Z,70.26
2019-01-02T02:08:26.435Z,70.26
2019-01-02T02:09:07.718Z,70.2
2019-01-02T02:09:49.992Z,69.5
2019-01-02T02:10:30.554Z,69.41
2019-01-02T02:11:12.092Z,69.21
2019-01-02T02:11:52.378Z,69.54
2019-01-02T02:12:32.822Z,69.92
2019-01-02T02:13:13.284Z,69.82
2019-01-02T02:13:53.720Z,69.41
2019-01-02T02:14:35.052Z,69.12
2019-01-02T02:15:17.299Z,70.07
2019-01-02T02:16:01.445Z,70.26
2019-01-02T02:16:45.610Z,69.88
2019-01-02T02:17:26.118Z,70.17
2019-01-02T02:18:06.391Z,69.6
2019-01-02T02:18:46.782Z,69.31
2019-01-02T02:19:27.147Z,69.21
2019-01-02T02:20:08.477Z,69.88
2019-01-02T02:20:48.856Z,70.07
2019-01-02T02:21:29.295Z,69.98
2019-01-02T02:22:11.766Z,70.26
2019-01-02T02:22:54.457Z,70.17
2019-01-02T02:23:35.006Z,70.07
2019-01-02T02:24:15.430Z,70.54
2019-01-02T02:24:57.241Z,70.36
2019-01-02T02:25:37.634Z,70.36
2019-01-02T02:26:21.857Z,70.64
2019-01-02T02:27:02.126Z,69.69
2019-01-02T02:27:44.091Z,69.69
2019-01-02T02:28:24.713Z,69.21
2019-01-02T02:29:05.164Z,70.17
2019-01-02T02:29:45.615Z,71.12
2019-01-02T02:30:28.135Z,70.74
2019-01-02T02:31:08.482Z,71.12
2019-01-02T02:31:53.599Z,70.54
2019-01-02T02:32:37.797Z,71.69
2019-01-02T02:33:19.835Z,70.64
2019-01-02T02:34:00.222Z,69.98
2019-01-02T02:34:42.472Z,71.97
2019-01-02T02:35:27.525Z,71.41
2019-01-02T02:36:09.405Z,70.83
2019-01-02T02:36:51.379Z,70.45
2019-01-02T02:37:35.711Z,70.93
2019-01-02T02:38:16.092Z,71.69
2019-01-02T02:38:59.330Z,71.31
2019-01-02T02:39:41.702Z,70.54
2019-01-02T02:40:26.018Z,71.12
2019-01-02T02:41:06.068Z,70.74
2019-01-02T02:41:46.470Z,70.36
2019-01-02T02:42:26.883Z,70.83
2019-01-02T02:43:07.316Z,71.31
2019-01-02T02:43:50.331Z,70.64
2019-01-02T02:44:32.612Z,70.54
2019-01-02T02:45:13.005Z,70.64
2019-01-02T02:45:55.548Z,70.93
2019-01-02T02:46:38.302Z,70.93
2019-01-02T02:47:19.354Z,70.64
2019-01-02T02:48:01.617Z,70.45
2019-01-02T02:48:42.901Z,70.54
2019-01-02T02:49:25.026Z,70.26
2019-01-02T02:50:05.551Z,70.54
2019-01-02T02:50:45.940Z,71.59
2019-01-02T02:51:26.371Z,71.59
2019-01-02T02:52:06.683Z,71.59
2019-01-02T02:52:47.571Z,71.5
2019-01-02T02:53:29.844Z,72.16
2019-01-02T02:54:10.199Z,72.35
2019-01-02T02:54:52.245Z,71.5
2019-01-02T02:55:33.245Z,71.31
2019-01-02T02:56:15.648Z,71.41
2019-01-02T02:56:56.707Z,71.78
2019-01-02T02:57:37.185Z,71.69
2019-01-02T02:58:17.453Z,72.07
2019-01-02T02:58:57.828Z,71.69
2019-01-02T02:59:39.257Z,71.88
2019-01-02T03:00:20.538Z,72.45
2019-01-02T03:01:00.970Z,72.64
2019-01-02T03:01:43.115Z,72.74
2019-01-02T03:02:25.633Z,72.07
2019-01-02T03:03:06.047Z,72.07
2019-01-02T03:03:46.554Z,72.74
2019-01-02T03:04:26.914Z,72.45
2019-01-02T03:05:09.199Z,71.69
2019-01-02T03:05:51.113Z,72.07
2019-01-02T03:06:31.513Z,72.16
2019-01-02T03:07:11.947Z,72.45
2019-01-02T03:07:52.661Z,72.16
2019-01-02T03:08:33.422Z,72.45
2019-01-02T03:09:16.929Z,71.5
2019-01-02T03:09:57.447Z,72.64
2019-01-02T03:10:37.748Z,72.07
2019-01-02T03:11:19.887Z,71.88
2019-01-02T03:12:00.671Z,71.97
2019-01-02T03:12:40.694Z,72.83
2019-01-02T03:13:21.179Z,72.55
2019-01-02T03:14:01.529Z,72.55
2019-01-02T03:14:43.623Z,72.55
2019-01-02T03:15:24.464Z,72.55
2019-01-02T03:16:07.197Z,72.35
2019-01-02T03:16:47.705Z,72.35
2019-01-02T03:17:28.095Z,72.55
2019-01-02T03:18:08.477Z,72.92
2019-01-02T03:18:48.881Z,72.83
2019-01-02T03:19:29.258Z,72.16
2019-01-02T03:20:09.632Z,71.69
2019-01-02T03:20:50.023Z,72.74
2019-01-02T03:21:30.436Z,72.64
2019-01-02T03:22:10.849Z,71.5
2019-01-02T03:22:51.226Z,71.78
2019-01-02T03:23:31.714Z,72.16
2019-01-02T03:24:12.362Z,72.55
2019-01-02T03:24:53.429Z,73.02
2019-01-02T03:25:33.825Z,73.02
2019-01-02T03:26:14.482Z,72.74
2019-01-02T03:26:54.768Z,72.26
2019-01-02T03:27:36.116Z,72.16
2019-01-02T03:28:16.527Z,71.69
2019-01-02T03:28:58.603Z,72.07
2019-01-02T03:29:39.049Z,71.88
2019-01-02T03:30:19.743Z,72.07
2019-01-02T03:31:00.082Z,71.97
2019-01-02T03:31:41.386Z,71.78
2019-01-02T03:32:21.978Z,71.78
2019-01-02T03:33:02.255Z,72.45
2019-01-02T03:33:45.133Z,72.26
2019-01-02T03:34:28.483Z,72.35
2019-01-02T03:35:10.680Z,72.07
2019-01-02T03:35:51.631Z,72.74
2019-01-02T03:36:32.296Z,73.02
2019-01-02T03:37:14.276Z,72.26
2019-01-02T03:37:56.493Z,72.16
2019-01-02T03:38:40.748Z,72.16
2019-01-02T03:39:21.434Z,71.88
2019-01-02T03:40:01.849Z,72.07
2019-01-02T03:40:42.416Z,71.5
2019-01-02T03:41:24.565Z,71.12
2019-01-02T03:42:04.963Z,71.31
2019-01-02T03:42:49.155Z,71.78
2019-01-02T03:43:32.108Z,72.35
2019-01-02T03:44:14.444Z,72.16
2019-01-02T03:44:54.634Z,71.97
2019-01-02T03:45:38.768Z,72.64
2019-01-02T03:46:20.698Z,72.74
2019-01-02T03:47:01.433Z,72.35
2019-01-02T03:47:43.628Z,72.64
2019-01-02T03:48:24.035Z,71.88
2019-01-02T03:49:08.139Z,72.16
2019-01-02T03:49:50.430Z,72.16
2019-01-02T03:50:30.705Z,71.69
2019-01-02T03:51:11.103Z,71.97
2019-01-02T03:51:53.340Z,72.45
2019-01-02T03:52:37.587Z,72.83
2019-01-02T03:53:20.357Z,72.74
2019-01-02T03:54:00.976Z,72.92
2019-01-02T03:54:42.363Z,73.3
2019-01-02T03:55:22.789Z,72.55
2019-01-02T03:56:04.830Z,71.82
2019-01-02T03:56:46.789Z,72.11
2019-01-02T03:57:29.241Z,72.3
2019-01-02T03:58:09.552Z,71.53
2019-01-02T03:58:51.697Z,71.69
2019-01-02T03:59:33.899Z,71.31
2019-01-02T04:00:16.202Z,72.07
2019-01-02T04:00:57.354Z,71.63
2019-01-02T04:01:37.924Z,71.78
2019-01-02T04:02:18.310Z,71.72
2019-01-02T04:02:58.740Z,71.69
2019-01-02T04:03:39.753Z,72.26
2019-01-02T04:04:21.770Z,72.3
2019-01-02T04:05:02.158Z,72.01
2019-01-02T04:05:42.623Z,71.82
2019-01-02T04:06:23.061Z,71.91
2019-01-02T04:07:03.629Z,71.15
2019-01-02T04:07:44.035Z,70.93
2019-01-02T04:08:25.439Z,71.41
2019-01-02T04:09:05.821Z,72.26
2019-01-02T04:09:48.187Z,72.64
2019-01-02T04:10:30.108Z,72.11
2019-01-02T04:11:11.745Z,72.2
2019-01-02T04:11:54.223Z,72.11
2019-01-02T04:12:36.223Z,71.44
2019-01-02T04:13:16.552Z,71.44
2019-01-02T04:13:56.931Z,71.34
2019-01-02T04:14:37.372Z,71.34
2019-01-02T04:15:18.020Z,70.87
2019-01-02T04:16:00.190Z,71.63
2019-01-02T04:16:41.568Z,70.87
2019-01-02T04:17:22.040Z,71.53
2019-01-02T04:18:03.369Z,71.15
2019-01-02T05:10:52.733Z,74.22
2019-01-02T05:11:34.210Z,74.88
2019-01-02T05:12:18.459Z,74.31
2019-01-02T05:13:00.840Z,74.73
2019-01-02T05:13:43.070Z,73.74
2019-01-02T05:14:24.454Z,73.46
2019-01-02T05:15:06.012Z,73.21
2019-01-02T05:15:46.415Z,73.78
2019-01-02T05:16:26.848Z,73.4
2019-01-02T05:17:08.916Z,72.83
2019-01-02T05:27:27.763Z,73.02
2019-01-02T05:28:10.095Z,72.55
2019-01-02T05:28:50.490Z,72.55
2019-01-02T05:29:33.915Z,72.92
2019-01-02T05:30:14.275Z,73.02
2019-01-02T05:30:56.762Z,73.02
2019-01-02T05:31:40.961Z,72.74
2019-01-02T05:32:23.369Z,73.3
2019-01-02T05:33:04.028Z,72.35
2019-01-02T05:33:44.647Z,72.64
2019-01-02T05:34:25.642Z,72.45
2019-01-02T05:35:09.886Z,72.45
2019-01-02T05:35:50.299Z,72.92
2019-01-02T05:36:31.827Z,72.74
2019-01-02T05:37:13.981Z,72.64
2019-01-02T05:37:56.324Z,72.55
2019-01-02T05:38:42.336Z,72.55
2019-01-02T05:39:24.419Z,72.64
2019-01-02T05:40:06.841Z,72.45
2019-01-02T05:57:05.794Z,71.02
2019-01-02T05:57:52.237Z,70.74
2019-01-02T05:58:37.344Z,71.5
2019-01-02T05:59:19.299Z,72.26
2019-01-02T06:00:00.581Z,72.16
2019-01-02T06:00:42.626Z,71.5
2019-01-02T06:04:16.186Z,72.45
2019-01-02T06:04:56.201Z,72.64
2019-01-02T06:10:44.661Z,72.74
2019-01-02T06:11:43.665Z,72.07
2019-01-02T06:12:36.928Z,72.26
2019-01-02T06:13:28.961Z,72.55
2019-01-02T06:14:22.669Z,73.02
2019-01-02T06:15:19.163Z,73.11
2019-01-02T06:16:13.938Z,73.02
2019-01-02T06:17:06.824Z,73.02
2019-01-02T06:18:00.400Z,73.3
2019-01-02T06:18:58.481Z,72.64
2019-01-02T06:19:58.148Z,73.21
2019-01-02T06:20:52.314Z,73.21
2019-01-02T06:21:45.158Z,72.64
2019-01-02T06:22:40.145Z,72.92
2019-01-02T06:23:37.875Z,72.55
2019-01-02T06:24:31.088Z,73.3
2019-01-02T06:25:24.523Z,73.21
2019-01-02T06:26:28.821Z,72.55
2019-01-02T06:27:23.259Z,72.83
2019-01-02T06:28:15.682Z,72.45
2019-01-02T06:29:09.236Z,73.02
2019-01-02T06:30:11.204Z,72.55
2019-01-02T06:31:12.623Z,73.21
2019-01-02T06:32:06.964Z,73.02
2019-01-02T06:33:01.687Z,72.83
2019-01-02T06:33:56.618Z,72.55
2019-01-02T06:34:51.837Z,72.55
2019-01-02T06:35:50.243Z,72.16
2019-01-02T06:36:44.600Z,72.55
2019-01-02T06:37:40.713Z,73.11
2019-01-02T06:38:38.031Z,73.3
2019-01-02T06:39:35.594Z,72.92
2019-01-02T06:40:33.478Z,72.92
2019-01-02T06:58:23.891Z,73.88
2019-01-02T06:59:19.302Z,74.26
2019-01-02T07:00:15.687Z,74.92
2019-01-02T07:01:12.108Z,73.49
2019-01-02T07:02:05.723Z,73.69
2019-01-02T07:03:02.302Z,74.35
2019-01-02T07:03:59.994Z,73.78
2019-01-02T07:09:35.852Z,76.31
2019-01-02T07:10:30.812Z,75.36
2019-01-02T07:11:27.760Z,76.03
2019-01-02T07:12:27.814Z,76.03
2019-01-02T07:20:11.637Z,76.31
2019-01-02T07:21:09.816Z,75.84
2019-01-02T07:22:14.156Z,75.45
2019-01-02T07:23:22.648Z,75.84
2019-01-02T07:24:18.983Z,76.31
2019-01-02T07:41:22.331Z,77.97
2019-01-02T07:42:29.195Z,77.87
2019-01-02T07:43:42.766Z,77.97
2019-01-02T07:44:54.768Z,78.82
2019-01-02T07:46:05.637Z,79.11
2019-01-02T07:57:29.285Z,78.25
2019-01-02T07:58:12.688Z,77.3
2019-01-02T07:58:55.232Z,77.58
2019-01-02T07:59:35.310Z,78.25
2019-01-02T08:00:20.660Z,77.97
2019-01-02T08:01:00.950Z,78.25
2019-01-02T08:01:42.567Z,77.49
2019-01-02T08:02:26.537Z,77.68
2019-01-02T08:03:07.980Z,77.3
2019-01-02T08:03:51.222Z,76.73
2019-01-02T08:04:32.709Z,77.49
2019-01-02T08:05:13.919Z,77.11
2019-01-02T08:05:56.721Z,77.39
2019-01-02T08:06:39.051Z,77.68
2019-01-02T08:07:21.409Z,77.3
2019-01-02T08:08:03.606Z,78.25
2019-01-02T08:08:45.210Z,78.82
2019-01-02T08:09:27.485Z,78.72
2019-01-02T08:10:08.854Z,77.58
2019-01-02T08:11:05.477Z,77.58
2019-01-02T08:11:45.988Z,77.39
2019-01-02T08:12:30.359Z,78.11
2019-01-02T08:13:12.484Z,79.01
2019-01-02T08:13:53.736Z,79.39
2019-01-02T08:14:40.124Z,79.39
2019-01-02T08:15:23.392Z,79.01
2019-01-02T08:16:03.780Z,78.82
2019-01-02T08:16:45.177Z,78.72
2019-01-02T08:17:34.165Z,78.63
2019-01-02T08:18:15.334Z,78.72
2019-01-02T08:18:58.344Z,78.34
2019-01-02T08:19:38.720Z,77.49
2019-01-02T08:20:19.179Z,78.72
2019-01-02T08:21:00.628Z,78.16
2019-01-02T08:21:41.272Z,78.16
2019-01-02T08:22:21.566Z,77.58
2019-01-02T08:23:02.051Z,77.49
2019-01-02T08:23:45.906Z,77.58
2019-01-02T08:24:27.703Z,78.25
2019-01-02T08:25:09.713Z,77.97
2019-01-02T08:25:50.795Z,77.3
2019-01-02T08:26:33.641Z,77.34
2019-01-02T08:27:19.319Z,76.29
2019-01-02T08:28:04.021Z,76.67
2019-01-02T08:28:48.044Z,77.2
2019-01-02T08:29:28.386Z,77.05
2019-01-02T08:30:11.351Z,76.92
2019-01-02T08:30:55.594Z,76.73
2019-01-02T08:31:40.539Z,76.73
2019-01-02T08:32:21.881Z,77.15
2019-01-02T08:33:02.973Z,76.67
2019-01-02T08:38:58.371Z,77.34
2019-01-02T08:39:56.863Z,76.67
2019-01-02T08:40:57.801Z,76.29
2019-01-02T08:41:59.964Z,76.54
2019-01-02T08:42:55.977Z,77.34
2019-01-02T08:43:52.596Z,77.2
2019-01-02T08:44:51.702Z,77.11
2019-01-02T08:45:51.262Z,77.58
2019-01-02T08:46:54.114Z,77.3
2019-01-02T08:56:06.485Z,77.97
2019-01-02T08:57:08.975Z,78.96
2019-01-02T08:58:05.242Z,78.19
2019-01-02T08:59:05.777Z,78.06
2019-01-02T09:09:37.053Z,76.67
2019-01-02T09:10:24.586Z,76.39
2019-01-02T09:11:05.964Z,76.67
2019-01-02T09:11:47.470Z,77.05
2019-01-02T09:12:28.927Z,77.43
2019-01-02T09:13:10.749Z,77.15
2019-01-02T09:13:55.005Z,77.34
2019-01-02T09:14:36.161Z,77.72
2019-01-02T09:15:21.660Z,77.62
2019-01-02T09:16:06.584Z,77.15
2019-01-02T09:26:37.930Z,75.72
2019-01-02T09:35:23.541Z,76.29
2019-01-02T09:36:32.393Z,75.72
2019-01-02T09:49:22.602Z,77.24
2019-01-02T09:50:15.681Z,76.76
2019-01-02T09:51:20.248Z,76.57
2019-01-02T09:52:15.051Z,76.39
2019-01-02T09:55:52.264Z,76.23
2019-01-02T09:56:52.919Z,75.62
2019-01-02T09:57:54.302Z,76.23
2019-01-02T09:58:53.170Z,76.42
2019-01-02T10:09:40.091Z,75.47
2019-01-02T10:10:22.232Z,75.95
2019-01-02T10:11:06.749Z,75.57
2019-01-02T10:11:49.163Z,75.57
2019-01-02T10:12:31.234Z,76.23
2019-01-02T10:13:13.341Z,76.71
2019-01-02T10:13:54.770Z,76.61
2019-01-02T10:14:35.286Z,76.04
2019-01-02T10:15:15.740Z,76.42
2019-01-02T10:15:57.747Z,76.9
2019-01-02T10:16:40.851Z,76.14
2019-01-02T10:17:25.823Z,76.33
2019-01-02T10:18:07.886Z,76.23
2019-01-02T10:18:52.275Z,75.67
2019-01-02T10:19:32.892Z,75.57
2019-01-02T10:20:14.390Z,75.67
2019-01-02T10:20:54.957Z,75.09
2019-01-02T10:21:35.449Z,76.04
2019-01-02T10:22:25.809Z,75.67
2019-01-02T10:23:06.322Z,76.33
2019-01-02T10:23:47.733Z,76.14
2019-01-02T10:24:28.302Z,75.76
2019-01-02T10:25:10.786Z,75.95
2019-01-02T10:25:51.344Z,76.23
2019-01-02T10:26:31.778Z,76.04
2019-01-02T10:27:14.201Z,76.23
2019-01-02T10:27:58.246Z,75.47
2019-01-02T10:28:40.446Z,76.14
2019-01-02T10:29:24.758Z,75.76
2019-01-02T11:11:28.344Z,65.93
2019-01-02T11:12:31.953Z,64.69
2019-01-02T11:13:30.808Z,63.83
2019-01-02T11:14:38.644Z,63.26
2019-01-02T11:15:42.647Z,63.1
2019-01-02T11:16:42.764Z,61.86
2019-01-02T11:17:49.764Z,61.38
2019-01-02T11:18:56.533Z,60.74
2019-01-02T11:19:57.672Z,59.78
2019-01-02T11:20:58.642Z,60.27
2019-01-02T11:22:12.841Z,60.36
2019-01-02T11:23:17.225Z,60.17
2019-01-02T11:24:32.009Z,60.17
2019-01-02T11:25:28.583Z,60.17
2019-01-02T11:26:27.081Z,61.13
2019-01-02T11:27:30.318Z,60.36
2019-01-02T11:36:03.112Z,57.93
2019-01-02T11:36:48.488Z,56.88
2019-01-02T11:37:30.411Z,56.4
2019-01-02T11:38:11.400Z,56.88
2019-01-02T11:38:53.343Z,56.5
2019-01-02T11:39:44.403Z,56.21
2019-01-02T11:40:26.728Z,55.74
2019-01-02T11:41:09.018Z,56.21
2019-01-02T11:41:49.504Z,56.38
2019-01-02T11:42:32.360Z,57.14
2019-01-02T11:43:12.972Z,56.63
2019-01-02T11:43:53.638Z,57.4
2019-01-02T11:44:34.068Z,58.07
2019-01-02T11:45:15.469Z,59.28
2019-01-02T11:45:56.021Z,59.95
2019-01-02T11:46:36.485Z,60.33
2019-01-02T11:47:16.843Z,60.61
2019-01-02T11:47:57.523Z,60.52
2019-01-02T11:48:38.192Z,60.39
2019-01-02T11:49:18.955Z,60.49
2019-01-02T11:50:01.144Z,61.25
2019-01-02T11:50:41.590Z,61.83
2019-01-02T11:51:22.063Z,62.65
2019-01-02T11:52:04.442Z,62.56
2019-01-02T11:52:49.421Z,63.13
2019-01-02T11:53:31.816Z,63.7
2019-01-02T11:54:12.256Z,64.09
2019-01-02T11:54:56.266Z,64.47
2019-01-02T11:55:40.436Z,63.86
2019-01-02T11:56:23.329Z,63.67
2019-01-02T11:57:03.868Z,63.67
2019-01-02T11:57:44.245Z,64.72
2019-01-02T11:58:25.249Z,65.48
2019-01-02T11:59:07.277Z,65.29
2019-01-02T11:59:48.459Z,65.1
2019-01-02T12:01:55.992Z,65.58
2019-01-02T12:02:37.375Z,65.96
2019-01-02T12:03:17.865Z,66.63
2019-01-02T12:03:58.300Z,67
2019-01-02T12:04:40.588Z,66.59
2019-01-02T12:05:22.941Z,67.07
2019-01-02T12:06:05.176Z,67.45
2019-01-02T12:06:49.665Z,67.83
2019-01-02T12:07:35.037Z,67.93
2019-01-02T12:08:16.908Z,68.69
2019-01-02T12:08:58.240Z,67.83
2019-01-02T12:11:29.435Z,68.59
2019-01-02T12:12:30.214Z,67.93
2019-01-02T12:14:02.132Z,68.78
2019-01-02T12:15:02.791Z,68.59
2019-01-02T12:16:01.754Z,68.5
2019-01-02T12:16:59.908Z,67.83
2019-01-02T12:20:21.113Z,66.88
2019-01-02T12:21:27.411Z,67.58
2019-01-02T12:22:23.403Z,67.58
2019-01-02T12:25:53.695Z,63.86
2019-01-02T12:26:39.914Z,63.67
2019-01-02T12:27:22.355Z,64.05
2019-01-02T12:28:07.173Z,63.67
2019-01-02T12:28:50.727Z,63.51
2019-01-02T12:29:31.241Z,64.18
2019-01-02T12:30:14.249Z,63.51
2019-01-02T12:30:56.088Z,62.46
2019-01-02T12:38:31.285Z,58.51
2019-01-02T12:39:38.316Z,57.56
2019-01-02T12:41:55.154Z,57.46
2019-01-02T12:42:58.216Z,57.78
2019-01-02T12:43:56.296Z,56.35
2019-01-02T12:44:58.022Z,56.25
2019-01-02T12:45:58.161Z,55.49
2019-01-02T12:47:12.107Z,56.09
2019-01-02T12:50:57.291Z,53.34
2019-01-02T12:53:17.859Z,53.25
2019-01-02T12:54:01.852Z,52.77
2019-01-02T12:54:43.256Z,51.91
2019-01-02T12:55:27.773Z,51.53
2019-01-02T12:56:10.096Z,51.72
2019-01-02T12:56:52.426Z,52.1
2019-01-02T12:57:32.814Z,51.53
2019-01-02T12:58:13.507Z,52.1
2019-01-02T12:59:10.165Z,52.39
2019-01-02T12:59:50.898Z,52.26
2019-01-02T13:00:31.345Z,52.75
2019-01-02T13:01:13.759Z,53.29
2019-01-02T13:01:54.330Z,54.34
2019-01-02T13:02:34.695Z,53.7
2019-01-02T13:03:15.387Z,53.1
2019-01-02T13:09:30.926Z,53.86
2019-01-02T13:12:53.117Z,54.82
2019-01-02T13:13:39.049Z,54.44
2019-01-02T13:14:21.321Z,53.58
2019-01-02T13:15:05.334Z,53.58
2019-01-02T13:15:46.243Z,53.29
2019-01-02T13:16:27.031Z,55.01
2019-01-02T13:17:11.471Z,55.18
2019-01-02T13:17:51.916Z,55.4
2019-01-02T13:18:35.886Z,54.7
2019-01-02T13:19:19.679Z,55.18
2019-01-02T13:20:01.736Z,55.08
2019-01-02T13:20:42.175Z,55.94
2019-01-02T13:21:25.021Z,55.94
2019-01-02T13:22:05.523Z,56.6
2019-01-02T13:22:47.811Z,56.41
2019-01-02T13:23:30.727Z,56.51
2019-01-02T13:24:11.051Z,56.38
2019-01-02T13:24:51.491Z,56.77
2019-01-02T13:26:49.645Z,57.24
2019-01-02T13:27:53.973Z,56.87
2019-01-02T13:28:49.270Z,57.53
2019-01-02T13:30:00.510Z,57.63
2019-01-02T13:31:00.006Z,58.29
2019-01-02T13:31:56.504Z,56.48
2019-01-02T13:32:54.273Z,56.29
2019-01-02T13:33:47.106Z,57.15
2019-01-02T13:34:40.147Z,58.58
2019-01-02T13:35:52.160Z,57.82
2019-01-02T13:36:55.914Z,59.16
2019-01-02T13:37:52.633Z,58.9
2019-01-02T13:38:59.212Z,58.39
2019-01-02T13:39:59.489Z,58.87
2019-01-02T13:42:27.933Z,58.97
2019-01-02T13:43:30.551Z,59.34
2019-01-02T13:44:46.426Z,57.82
2019-01-02T13:45:49.189Z,58.48
2019-01-02T13:46:49.390Z,58.11
2019-01-02T13:47:49.189Z,58.36
2019-01-02T13:48:45.719Z,58.84
2019-01-02T13:49:48.566Z,59.79
2019-01-02T13:50:43.817Z,60.46
2019-01-02T13:51:41.254Z,59.41
2019-01-02T13:52:37.278Z,59.6
2019-01-02T13:53:36.112Z,59.7
2019-01-02T13:54:33.604Z,60.08
2019-01-02T13:55:32.138Z,59.7
2019-01-02T13:56:31.290Z,60.27
2019-01-02T13:57:27.075Z,59.95
2019-01-02T13:58:25.743Z,60.55
2019-01-02T13:59:20.827Z,61.13
2019-01-02T14:00:19.222Z,61.29
2019-01-02T14:01:31.297Z,60.17
2019-01-02T14:06:25.860Z,61.1
2019-01-02T14:07:19.615Z,60.62
2019-01-02T14:08:17.248Z,60.72
2019-01-02T14:09:13.044Z,61.57
2019-01-02T14:10:08.844Z,60.81
2019-01-02T14:11:10.669Z,60.91
2019-01-02T14:12:07.876Z,61
2019-01-02T14:13:04.452Z,61.48
2019-01-02T14:14:04.238Z,61.29
2019-01-02T14:15:02.587Z,61.16
2019-01-02T14:15:57.062Z,62.21
2019-01-02T14:16:53.518Z,62.68
2019-01-02T14:17:48.682Z,62.62
2019-01-02T14:18:47.173Z,62.34
2019-01-02T14:19:45.871Z,61.25
2019-01-02T14:20:47.184Z,62.3
2019-01-02T14:21:46.504Z,62.72
2019-01-02T14:22:44.892Z,62.34
2019-01-02T14:23:41.726Z,62.34
2019-01-02T14:24:38.522Z,62.52
2019-01-02T14:25:36.136Z,62.24
2019-01-02T14:33:11.866Z,60.33
2019-01-02T14:34:05.593Z,61.1
2019-01-02T14:35:02.329Z,60.33
2019-01-02T14:36:16.118Z,60.91
2019-01-02T14:37:16.235Z,59.76
2019-01-02T14:38:14.100Z,60.05
2019-01-02T14:39:10.001Z,60.24
2019-01-02T14:40:03.959Z,60.05
2019-01-02T14:41:01.379Z,59.67
2019-01-02T14:41:57.442Z,59.79
2019-01-02T14:42:59.616Z,59.19
2019-01-02T14:43:52.097Z,59.28
2019-01-02T14:44:45.217Z,58.33
2019-01-02T14:45:40.800Z,60.05
2019-01-02T14:48:18.999Z,62.62
2019-01-02T14:49:04.491Z,62.24
2019-01-02T14:49:47.229Z,61.96
2019-01-02T14:50:27.488Z,61.76
2019-01-02T14:51:07.894Z,61.48